Time;durP1;ratioP1;P1;durP2;ratioP2;P2;SDS_P1;SDS_P2;PMS_P1;PMS_P2;Temp;Humidity;BMP_temperature;BMP_pressure;BME280_temperature;BME280_humidity;BME280_pressure;Samples;Min_cycle;Max_cycle;Signal;HPM_P1;HPM_P2
2022/11/30 00:01:58;;;;;;;6.13;2.93;;;;;;;-141.28;100.00;52081.47;5092947;28;20529;-75
2022/11/30 00:04:25;;;;;;;8.13;2.90;;;;;;;-141.28;100.00;52136.44;5091966;28;20454;-75
2022/11/30 00:06:56;;;;;;;6.50;3.17;;;;;;;-141.28;100.00;52158.06;5092636;28;20449;-78
2022/11/30 00:09:24;;;;;;;4.10;2.57;;;;;;;-141.28;100.00;52105.03;5092757;28;20461;-77
2022/11/30 00:11:51;;;;;;;5.87;2.87;;;;;;;-141.28;100.00;52014.69;5092591;28;20434;-75
2022/11/30 00:14:18;;;;;;;4.07;3.07;;;;;;;-141.28;100.00;52118.78;5103260;28;20444;-76
2022/11/30 00:16:45;;;;;;;8.80;6.00;;;;;;;-141.28;100.00;52148.25;5093204;28;20523;-78
2022/11/30 00:19:12;;;;;;;4.90;3.73;;;;;;;-141.28;100.00;52167.88;5092324;28;20493;-75
2022/11/30 00:21:40;;;;;;;4.20;3.00;;;;;;;-141.28;100.00;52136.44;5101629;28;20455;-74
2022/11/30 00:24:07;;;;;;;4.13;2.90;;;;;;;-141.28;100.00;52167.88;5082319;28;20456;-76
2022/11/30 00:26:36;;;;;;;1.90;1.67;;;;;;;-141.28;100.00;52128.59;5091780;28;20473;-76
2022/11/30 00:29:03;;;;;;;3.90;3.10;;;;;;;-141.28;100.00;52183.59;5092100;28;20441;-75
2022/11/30 00:31:30;;;;;;;3.50;2.23;;;;;;;-141.28;100.00;52175.72;5082620;28;20508;-75
2022/11/30 00:33:59;;;;;;;6.20;2.30;;;;;;;-141.28;100.00;52226.78;5086351;28;20454;-75
2022/11/30 00:36:27;;;;;;;2.20;2.00;;;;;;;-141.28;100.00;52144.31;5079279;28;20510;-76
2022/11/30 00:38:55;;;;;;;4.33;2.27;;;;;;;-141.28;100.00;52124.66;5105008;28;20556;-74
2022/11/30 00:41:22;;;;;;;2.63;2.30;;;;;;;-141.28;100.00;52124.66;5079484;28;20527;-76
2022/11/30 00:43:51;;;;;;;4.17;2.60;;;;;;;-141.28;100.00;51930.25;5092092;28;20448;-78
2022/11/30 00:46:22;;;;;;;5.03;2.30;;;;;;;-141.28;100.00;52144.31;5092456;28;21001;-76
2022/11/30 00:48:49;;;;;;;3.13;2.57;;;;;;;-141.28;100.00;52099.13;5092496;28;20453;-76
2022/11/30 00:51:17;;;;;;;4.90;3.10;;;;;;;-141.28;100.00;52134.50;5098060;28;20449;-77
2022/11/30 00:53:44;;;;;;;2.83;2.33;;;;;;;-141.28;100.00;52081.47;5107979;28;20454;-78
2022/11/30 00:56:12;;;;;;;3.80;2.43;;;;;;;-141.28;100.00;52114.84;5092279;28;20453;-76
2022/11/30 00:58:39;;;;;;;4.10;2.47;;;;;;;-141.28;100.00;52075.56;5092034;28;20526;-77
2022/11/30 01:01:08;;;;;;;4.73;2.90;;;;;;;-141.28;100.00;52112.88;5092079;28;20454;-78
2022/11/30 01:03:35;;;;;;;4.50;2.50;;;;;;;-141.28;100.00;52101.09;5101301;28;20449;-76
2022/11/30 01:06:03;;;;;;;3.37;2.60;;;;;;;-141.28;100.00;52077.53;5107978;28;20826;-74
2022/11/30 01:08:32;;;;;;;2.70;2.27;;;;;;;-141.28;100.00;52069.69;5092335;28;20454;-77
2022/11/30 01:11:06;;;;;;;3.83;2.20;;;;;;;-141.28;100.00;52075.56;5091552;28;20438;-76
2022/11/30 01:13:32;;;;;;;4.50;2.23;;;;;;;-141.28;100.00;52034.34;5093059;28;20472;-76
2022/11/30 01:16:00;;;;;;;3.07;2.07;;;;;;;-141.28;100.00;52069.69;5111854;28;20463;-77
2022/11/30 01:18:28;;;;;;;2.87;2.17;;;;;;;-141.28;100.00;52010.78;5091792;28;20476;-76
2022/11/30 01:20:55;;;;;;;2.50;2.00;;;;;;;-141.28;100.00;52073.63;5089348;28;20491;-74
2022/11/30 01:23:23;;;;;;;2.50;1.87;;;;;;;-141.28;100.00;52097.19;5072018;28;20455;-74
2022/11/30 01:25:56;;;;;;;3.63;2.10;;;;;;;-141.28;100.00;52006.84;5096107;28;20449;-77
2022/11/30 01:28:23;;;;;;;4.63;2.30;;;;;;;-141.28;100.00;52065.75;5108240;28;20455;-78
2022/11/30 01:30:58;;;;;;;4.13;2.10;;;;;;;-141.28;100.00;52026.47;5111419;28;20493;-76
2022/11/30 01:33:25;;;;;;;3.20;2.10;;;;;;;-141.28;100.00;52006.84;5106457;28;20787;-77
2022/11/30 01:36:01;;;;;;;2.93;1.93;;;;;;;-141.28;100.00;51951.84;5092110;28;20453;-77
2022/11/30 01:38:32;;;;;;;3.03;2.40;;;;;;;-141.28;100.00;51951.84;5092959;28;20514;-75
2022/11/30 01:41:01;;;;;;;3.60;2.40;;;;;;;-141.28;100.00;51945.97;5095232;28;20984;-76
2022/11/30 01:43:38;;;;;;;3.80;2.47;;;;;;;-141.28;100.00;51959.72;5108353;28;20454;-75
2022/11/30 01:46:17;;;;;;;3.27;2.03;;;;;;;-141.28;100.00;51967.56;5095336;28;20453;-77
2022/11/30 01:48:45;;;;;;;2.50;1.70;;;;;;;-141.28;100.00;51834.03;5095320;28;20506;-74
2022/11/30 01:51:13;;;;;;;3.37;2.00;;;;;;;-141.28;100.00;51959.72;5095799;28;20450;-75
2022/11/30 01:53:42;;;;;;;6.53;3.40;;;;;;;-141.28;100.00;51940.06;5096640;28;20456;-75
2022/11/30 01:56:10;;;;;;;6.03;3.57;;;;;;;-141.28;100.00;52000.94;5096744;28;20879;-75
2022/11/30 01:58:39;;;;;;;6.47;3.40;;;;;;;-141.28;100.00;51786.91;5098347;28;20477;-76
2022/11/30 02:01:06;;;;;;;3.57;2.80;;;;;;;-141.28;100.00;52006.84;5095681;28;20529;-75
2022/11/30 02:03:39;;;;;;;3.40;2.30;;;;;;;-141.28;100.00;51999.00;5095181;28;20450;-77
2022/11/30 02:06:08;;;;;;;3.73;1.77;;;;;;;-141.28;100.00;52034.34;5082578;28;20445;-75
2022/11/30 02:08:36;;;;;;;2.80;1.80;;;;;;;-141.28;100.00;52018.63;5094902;28;20437;-78
2022/11/30 02:11:06;;;;;;;3.07;2.13;;;;;;;-141.28;100.00;51883.13;5094651;28;20526;-76
2022/11/30 02:13:43;;;;;;;2.37;2.07;;;;;;;-141.28;100.00;51995.06;5094939;28;20524;-75
2022/11/30 02:16:19;;;;;;;4.77;2.27;;;;;;;-141.28;100.00;51979.34;5095176;28;20453;-78
2022/11/30 02:18:53;;;;;;;3.43;2.10;;;;;;;-141.28;100.00;51971.50;5094616;28;20503;-78
2022/11/30 02:21:31;;;;;;;3.10;2.40;;;;;;;-141.28;100.00;51926.34;5094709;28;20465;-79
2022/11/30 02:24:20;;;;;;;5.60;2.50;;;;;;;-141.28;100.00;51855.63;5083439;28;20448;-77
2022/11/30 02:27:09;;;;;;;5.27;2.40;;;;;;;-141.28;100.00;51786.91;5108089;28;20445;-76
2022/11/30 02:29:44;;;;;;;3.30;2.03;;;;;;;-141.28;100.00;51735.84;5085962;28;20437;-78
2022/11/30 02:32:17;;;;;;;3.33;2.20;;;;;;;-141.28;100.00;51735.84;5095355;28;20437;-75
2022/11/30 02:34:48;;;;;;;5.20;2.50;;;;;;;-141.28;100.00;51771.19;5082850;28;20455;-76
2022/11/30 02:37:17;;;;;;;3.23;2.50;;;;;;;-141.28;100.00;51810.47;5093960;28;20441;-75
2022/11/30 02:39:44;;;;;;;4.17;2.60;;;;;;;-141.28;100.00;51798.69;5094323;28;20561;-75
2022/11/30 02:42:13;;;;;;;3.40;2.43;;;;;;;-141.28;100.00;51830.09;5094627;28;20446;-78
2022/11/30 02:44:44;;;;;;;6.77;3.00;;;;;;;-141.28;100.00;51861.53;5094230;28;20449;-75
2022/11/30 02:47:18;;;;;;;6.00;2.47;;;;;;;-141.28;100.00;51818.31;5082495;28;20445;-76
2022/11/30 02:49:52;;;;;;;3.57;2.47;;;;;;;-141.28;100.00;51832.06;5105776;28;20510;-77
2022/11/30 02:52:24;;;;;;;4.03;2.43;;;;;;;-141.28;100.00;51798.69;5102946;28;20468;-74
2022/11/30 02:54:52;;;;;;;4.37;2.37;;;;;;;-141.28;100.00;51810.47;5093714;28;20468;-77
2022/11/30 02:57:20;;;;;;;4.33;2.67;;;;;;;-141.28;100.00;51865.47;5094181;28;20480;-78
2022/11/30 02:59:48;;;;;;;4.90;2.60;;;;;;;-141.28;100.00;51849.75;5093902;28;20530;-76
2022/11/30 03:02:18;;;;;;;6.87;3.23;;;;;;;-141.28;100.00;51845.81;5105152;28;20833;-77
2022/11/30 03:04:45;;;;;;;6.43;3.30;;;;;;;-141.28;100.00;51755.50;5093283;28;20442;-75
2022/11/30 03:07:13;;;;;;;6.57;3.10;;;;;;;-141.28;100.00;51845.81;5094203;28;20458;-74
2022/11/30 03:09:40;;;;;;;3.90;3.00;;;;;;;-141.28;100.00;51865.47;5093575;28;20502;-75
2022/11/30 03:12:07;;;;;;;6.33;3.07;;;;;;;-141.28;100.00;51849.75;5093743;28;20524;-75
2022/11/30 03:14:36;;;;;;;7.83;3.30;;;;;;;-141.28;100.00;51885.09;5092735;28;20449;-76
2022/11/30 03:17:05;;;;;;;9.07;3.30;;;;;;;-141.28;100.00;51818.31;5093602;28;20592;-76
2022/11/30 03:19:34;;;;;;;7.00;2.73;;;;;;;-141.28;100.00;51849.75;5093268;28;20492;-77
2022/11/30 03:22:02;;;;;;;3.67;2.50;;;;;;;-141.28;100.00;51763.34;5093348;28;20468;-77
2022/11/30 03:24:30;;;;;;;2.80;1.70;;;;;;;-141.28;100.00;51818.31;5094573;28;20450;-78
2022/11/30 03:26:58;;;;;;;2.23;1.93;;;;;;;-141.28;100.00;51775.13;5092457;28;20449;-77
2022/11/30 03:29:25;;;;;;;6.10;2.80;;;;;;;-141.28;100.00;51690.69;5106100;28;20460;-76
2022/11/30 03:31:54;;;;;;;3.30;2.57;;;;;;;-141.28;100.00;51720.16;5100378;28;20454;-76
2022/11/30 03:34:26;;;;;;;2.43;2.13;;;;;;;-141.28;100.00;51716.22;5087508;28;20469;-77
2022/11/30 03:36:53;;;;;;;3.10;2.70;;;;;;;-141.28;100.00;51625.91;5081088;28;20885;-76
2022/11/30 03:39:20;;;;;;;3.63;3.10;;;;;;;-141.28;100.00;51637.69;5092924;28;20485;-76
2022/11/30 03:41:47;;;;;;;5.67;3.97;;;;;;;-141.28;100.00;51621.97;5093874;28;20504;-76
2022/11/30 03:44:14;;;;;;;6.37;3.30;;;;;;;-141.28;100.00;51586.63;5092810;28;20900;-74
2022/11/30 03:46:41;;;;;;;7.47;4.83;;;;;;;-141.28;100.00;51574.84;5093064;28;20506;-75
2022/11/30 03:49:10;;;;;;;11.70;7.07;;;;;;;-141.28;100.00;51559.13;5078287;28;20454;-76
2022/11/30 03:51:38;;;;;;;11.63;4.90;;;;;;;-141.28;100.00;51570.91;5081752;28;20453;-78
2022/11/30 03:54:05;;;;;;;9.10;4.67;;;;;;;-141.28;100.00;51547.34;5093137;28;20450;-76
2022/11/30 03:56:33;;;;;;;7.03;3.60;;;;;;;-141.28;100.00;51559.13;5093797;28;20806;-76
2022/11/30 03:59:01;;;;;;;6.00;3.83;;;;;;;-141.28;100.00;51567.00;5092803;28;20593;-77
2022/11/30 04:01:29;;;;;;;6.97;4.47;;;;;;;-141.28;100.00;51535.56;5092400;28;20437;-77
2022/11/30 04:03:57;;;;;;;9.23;5.23;;;;;;;-141.28;100.00;51470.78;5092839;28;21021;-77
2022/11/30 04:06:25;;;;;;;7.07;4.77;;;;;;;-141.28;100.00;51529.69;5093413;28;20457;-74
2022/11/30 04:08:54;;;;;;;8.73;5.33;;;;;;;-141.28;100.00;51453.09;5093246;28;20449;-75
2022/11/30 04:11:21;;;;;;;11.13;6.17;;;;;;;-141.28;100.00;51417.78;5083234;28;20512;-75
2022/11/30 04:13:48;;;;;;;11.40;7.47;;;;;;;-141.28;100.00;51415.81;5094288;28;20449;-74
2022/11/30 04:16:14;;;;;;;17.90;11.17;;;;;;;-141.28;100.00;51409.91;5092741;28;20472;-75
2022/11/30 04:18:43;;;;;;;13.77;8.27;;;;;;;-141.28;100.00;51425.63;5093504;28;20511;-75
2022/11/30 04:21:11;;;;;;;7.30;4.20;;;;;;;-141.28;100.00;51376.53;5092555;28;20493;-78
2022/11/30 04:23:40;;;;;;;4.23;2.53;;;;;;;-141.28;100.00;51284.25;5105579;28;20818;-78
2022/11/30 04:26:11;;;;;;;2.90;2.10;;;;;;;-141.28;100.00;51252.84;5085720;28;20505;-75
2022/11/30 04:28:40;;;;;;;3.00;2.50;;;;;;;-141.28;100.00;51158.59;5099555;28;20445;-75
2022/11/30 04:31:08;;;;;;;35.70;16.90;;;;;;;-141.28;100.00;51105.59;5079040;28;20441;-75
2022/11/30 04:33:35;;;;;;;61.07;28.60;;;;;;;-141.28;100.00;51111.50;5091978;28;20453;-75
2022/11/30 04:36:05;;;;;;;72.93;33.47;;;;;;;-141.28;100.00;50683.53;5092278;28;20454;-77
2022/11/30 04:38:33;;;;;;;17.97;10.03;;;;;;;-141.28;100.00;50946.59;5079401;28;20953;-74
2022/11/30 04:41:00;;;;;;;9.20;6.13;;;;;;;-141.28;100.00;50656.06;5073379;28;20486;-75
2022/11/30 04:43:31;;;;;;;6.23;4.10;;;;;;;-141.28;100.00;50852.34;5088647;28;20454;-77
2022/11/30 04:45:58;;;;;;;2.93;1.80;;;;;;;-141.28;100.00;50817.03;5093621;28;20453;-76
2022/11/30 04:48:26;;;;;;;2.33;1.70;;;;;;;-141.28;100.00;50773.81;5112134;28;20455;-75
2022/11/30 04:50:54;;;;;;;1.83;1.63;;;;;;;-141.28;100.00;50750.28;5112711;28;20456;-77
2022/11/30 04:53:21;;;;;;;3.23;2.13;;;;;;;-141.28;100.00;50659.97;5112390;28;20441;-75
2022/11/30 04:55:49;;;;;;;2.20;1.67;;;;;;;-141.28;100.00;50601.09;5101742;28;20819;-75
2022/11/30 04:58:16;;;;;;;1.70;1.33;;;;;;;-141.28;100.00;50665.88;5094535;28;20449;-72
2022/11/30 05:00:44;;;;;;;2.53;1.67;;;;;;;-141.28;100.00;50544.16;5121015;28;20480;-72
2022/11/30 05:03:11;;;;;;;2.23;1.63;;;;;;;-141.28;100.00;50571.63;5127804;28;20449;-73
2022/11/30 05:05:39;;;;;;;2.50;2.00;;;;;;;-141.28;100.00;50479.38;5111555;28;20922;-73
2022/11/30 05:08:06;;;;;;;6.87;3.53;;;;;;;-141.28;100.00;50569.69;5110252;28;20471;-75
2022/11/30 05:10:33;;;;;;;52.03;21.53;;;;;;;-141.28;100.00;50569.69;5113025;28;20438;-75
2022/11/30 05:13:00;;;;;;;51.03;19.80;;;;;;;-141.28;100.00;50532.38;5112041;28;20444;-76
2022/11/30 05:15:54;;;;;;;20.87;8.67;;;;;;;-141.28;100.00;50477.44;5112513;28;20445;-76
2022/11/30 05:18:23;;;;;;;8.33;5.47;;;;;;;-141.28;100.00;50377.31;5105902;28;20469;-77
2022/11/30 05:20:51;;;;;;;9.23;5.00;;;;;;;-141.28;100.00;50391.06;5091738;28;20492;-77
2022/11/30 05:23:19;;;;;;;7.13;3.83;;;;;;;-141.28;100.00;50406.75;5092269;28;20444;-78
2022/11/30 05:25:46;;;;;;;4.07;2.77;;;;;;;-141.28;100.00;50381.25;5092361;28;20461;-77
2022/11/30 05:28:14;;;;;;;5.37;3.37;;;;;;;-141.28;100.00;50412.66;5091708;28;20466;-75
2022/11/30 05:30:44;;;;;;;10.87;6.27;;;;;;;-141.28;100.00;50440.13;5091544;28;20437;-75
2022/11/30 05:33:12;;;;;;;8.77;4.60;;;;;;;-141.28;100.00;50420.50;5091948;28;20502;-75
2022/11/30 05:35:40;;;;;;;12.33;7.13;;;;;;;-141.28;100.00;50396.94;5091376;28;20507;-75
2022/11/30 05:38:07;;;;;;;8.23;5.37;;;;;;;-141.28;100.00;50389.09;5091661;28;20499;-77
2022/11/30 05:40:34;;;;;;;5.90;3.17;;;;;;;-141.28;100.00;50471.53;5091248;28;20871;-75
2022/11/30 05:43:04;;;;;;;5.30;3.40;;;;;;;-141.28;100.00;50495.09;5091461;28;20453;-76
2022/11/30 05:45:31;;;;;;;5.20;3.10;;;;;;;-141.28;100.00;50499.00;5085802;28;20554;-75
2022/11/30 05:47:59;;;;;;;6.17;3.00;;;;;;;-141.28;100.00;50534.34;5084017;28;20443;-76
2022/11/30 05:50:26;;;;;;;9.63;3.80;;;;;;;-141.28;100.00;50589.31;5078581;28;20955;-77
2022/11/30 05:52:56;;;;;;;6.07;3.10;;;;;;;-141.28;100.00;50565.75;5091111;28;20453;-76
2022/11/30 05:55:23;;;;;;;6.43;3.70;;;;;;;-141.28;100.00;50569.69;5091330;28;20525;-75
2022/11/30 05:57:50;;;;;;;8.93;3.00;;;;;;;-141.28;100.00;50591.28;5094654;28;20776;-76
2022/11/30 06:00:18;;;;;;;4.53;2.50;;;;;;;-141.28;100.00;50658.00;5091671;28;20490;-75
2022/11/30 06:02:45;;;;;;;4.70;2.67;;;;;;;-141.28;100.00;50667.81;5088860;28;20527;-76
2022/11/30 06:05:13;;;;;;;4.60;2.23;;;;;;;-141.28;100.00;50712.97;5091119;28;20445;-77
2022/11/30 06:07:40;;;;;;;2.97;2.67;;;;;;;-141.28;100.00;50699.22;5091295;28;20485;-74
2022/11/30 06:10:10;;;;;;;8.53;4.80;;;;;;;-141.28;100.00;50603.06;5092558;28;20450;-75
2022/11/30 06:12:38;;;;;;;10.27;6.53;;;;;;;-141.28;100.00;50758.13;5092098;28;20472;-76
2022/11/30 06:15:06;;;;;;;8.57;5.90;;;;;;;-141.28;100.00;50754.19;5092429;28;20449;-75
2022/11/30 06:17:36;;;;;;;9.13;6.37;;;;;;;-141.28;100.00;50765.97;5092431;28;20501;-78
2022/11/30 06:20:05;;;;;;;15.20;8.17;;;;;;;-141.28;100.00;50777.75;5093725;28;20473;-77
2022/11/30 06:22:32;;;;;;;20.73;9.93;;;;;;;-141.28;100.00;50817.03;5107011;28;20441;-75
2022/11/30 06:25:00;;;;;;;165.60;66.93;;;;;;;-141.28;100.00;50848.44;5118172;28;20446;-75
2022/11/30 06:27:32;;;;;;;56.80;25.03;;;;;;;-141.28;100.00;50868.06;5116678;28;20442;-74
2022/11/30 06:29:59;;;;;;;42.53;21.27;;;;;;;-141.28;100.00;50879.84;5118171;28;20433;-77
2022/11/30 06:32:26;;;;;;;29.80;12.60;;;;;;;-141.28;100.00;50703.16;5118747;28;20439;-77
2022/11/30 06:34:53;;;;;;;31.07;13.97;;;;;;;-141.28;100.00;50589.31;5087514;28;20458;-76
2022/11/30 06:37:21;;;;;;;12.97;6.20;;;;;;;-141.28;100.00;50946.59;5087327;28;20484;-75
2022/11/30 06:39:48;;;;;;;8.77;4.47;;;;;;;-141.28;100.00;51005.47;5077258;28;20500;-78
2022/11/30 06:42:18;;;;;;;20.57;10.30;;;;;;;-141.28;100.00;51013.31;5086387;28;20644;-76
2022/11/30 06:44:47;;;;;;;6.33;3.60;;;;;;;-141.28;100.00;50952.47;5091122;28;20456;-76
2022/11/30 06:47:14;;;;;;;15.87;6.77;;;;;;;-141.28;100.00;50966.22;5095675;28;20449;-76
2022/11/30 06:49:41;;;;;;;45.17;16.37;;;;;;;-141.28;100.00;51013.31;5126107;28;20512;-76
2022/11/30 06:52:11;;;;;;;46.83;16.27;;;;;;;-141.28;100.00;51032.97;5098747;28;20487;-75
2022/11/30 06:54:39;;;;;;;24.37;9.73;;;;;;;-141.28;100.00;50993.69;5114129;28;20441;-73
2022/11/30 06:57:07;;;;;;;37.43;14.87;;;;;;;-141.28;100.00;51054.56;5106800;28;20442;-74
2022/11/30 06:59:35;;;;;;;11.50;5.20;;;;;;;-141.28;100.00;51084.00;5095682;28;20446;-75
2022/11/30 07:02:04;;;;;;;38.63;15.90;;;;;;;-141.28;100.00;51123.28;5105733;28;20642;-77
2022/11/30 07:04:31;;;;;;;22.57;9.23;;;;;;;-141.28;100.00;51142.91;5094233;28;20442;-80
2022/11/30 07:06:58;;;;;;;28.63;13.20;;;;;;;-141.28;100.00;51099.72;5094533;28;20522;-75
2022/11/30 07:09:26;;;;;;;21.37;11.13;;;;;;;-141.28;100.00;51103.63;5080606;28;20504;-78
2022/11/30 07:11:53;;;;;;;17.83;10.40;;;;;;;-141.28;100.00;51109.53;5093893;28;20502;-76
2022/11/30 07:14:20;;;;;;;11.30;6.93;;;;;;;-141.28;100.00;51133.09;5093792;28;20442;-79
2022/11/30 07:16:47;;;;;;;12.00;7.00;;;;;;;-141.28;100.00;51174.31;5093683;28;20482;-78
2022/11/30 07:19:16;;;;;;;12.93;6.70;;;;;;;-141.28;100.00;51052.59;5094172;28;20438;-76
2022/11/30 07:21:43;;;;;;;10.10;6.00;;;;;;;-141.28;100.00;51115.41;5093986;28;20864;-74
2022/11/30 07:26:57;;;;;;;9.17;5.87;;;;;;;-141.28;100.00;51097.75;5094498;28;20582;-77
2022/11/30 07:29:24;;;;;;;8.73;3.53;;;;;;;-141.28;100.00;51142.91;5105715;28;20445;-74
2022/11/30 07:31:52;;;;;;;3.60;2.80;;;;;;;-141.28;100.00;51123.28;5096251;28;20457;-75
2022/11/30 07:34:22;;;;;;;7.23;3.30;;;;;;;-141.28;100.00;51084.00;5097934;28;20445;-76
2022/11/30 07:36:49;;;;;;;5.10;2.63;;;;;;;-141.28;100.00;51107.56;5079694;28;20957;-77
2022/11/30 07:39:17;;;;;;;5.33;2.57;;;;;;;-141.28;100.00;50956.41;5093315;28;20449;-77
2022/11/30 07:41:44;;;;;;;5.23;2.10;;;;;;;-141.28;100.00;51060.44;5079492;28;20496;-75
2022/11/30 07:44:11;;;;;;;12.37;6.20;;;;;;;-141.28;100.00;51029.03;5107809;28;20463;-78
2022/11/30 07:46:39;;;;;;;9.37;5.33;;;;;;;-141.28;100.00;51068.28;5093534;28;20471;-77
2022/11/30 07:49:09;;;;;;;9.00;4.10;;;;;;;-141.28;100.00;51080.06;5093665;28;20834;-75
2022/11/30 07:51:38;;;;;;;6.30;3.73;;;;;;;-141.28;100.00;51074.19;5111515;28;20461;-78
2022/11/30 07:54:05;;;;;;;11.40;6.90;;;;;;;-141.28;100.00;50773.81;5101180;28;20951;-77
2022/11/30 07:56:34;;;;;;;5.53;3.60;;;;;;;-141.28;100.00;51107.56;5106604;28;20442;-75
2022/11/30 07:59:02;;;;;;;3.53;2.43;;;;;;;-141.28;100.00;51080.06;5096332;28;20449;-75
2022/11/30 08:01:31;;;;;;;5.43;3.33;;;;;;;-141.28;100.00;51064.38;5116127;28;20484;-74
2022/11/30 08:03:59;;;;;;;4.80;2.50;;;;;;;-141.28;100.00;51093.81;5103823;28;20480;-73
2022/11/30 08:06:28;;;;;;;5.37;3.40;;;;;;;-141.28;100.00;51095.78;5099924;28;20995;-76
2022/11/30 08:08:58;;;;;;;6.13;3.63;;;;;;;-141.28;100.00;51021.19;5110049;28;20456;-73
2022/11/30 08:11:27;;;;;;;5.40;3.00;;;;;;;-141.28;100.00;51087.94;5102084;28;20508;-74
2022/11/30 08:13:55;;;;;;;5.77;3.53;;;;;;;-141.28;100.00;51101.66;5099129;28;20485;-75
2022/11/30 08:16:23;;;;;;;5.70;2.83;;;;;;;-141.28;100.00;51131.13;5092868;28;20458;-74
2022/11/30 08:18:51;;;;;;;7.17;3.57;;;;;;;-141.28;100.00;50974.06;5092326;28;20995;-75
2022/11/30 08:21:20;;;;;;;9.30;3.00;;;;;;;-141.28;100.00;51052.59;5091856;28;20542;-76
2022/11/30 08:23:48;;;;;;;26.27;12.10;;;;;;;-141.28;100.00;51052.59;5093213;28;20450;-75
2022/11/30 08:26:19;;;;;;;10.13;4.93;;;;;;;-141.28;100.00;51017.25;5092523;28;20511;-78
2022/11/30 08:28:47;;;;;;;8.83;4.27;;;;;;;-141.28;100.00;51005.47;5092366;28;20444;-78
2022/11/30 08:31:17;;;;;;;9.77;4.03;;;;;;;-141.28;100.00;51013.31;5092025;28;20454;-75
2022/11/30 08:33:44;;;;;;;16.53;7.00;;;;;;;-141.28;100.00;51001.56;5091802;28;20450;-75
2022/11/30 08:36:12;;;;;;;16.17;5.83;;;;;;;-141.28;100.00;50565.75;5105607;28;20498;-76
2022/11/30 08:38:41;;;;;;;25.67;13.57;;;;;;;-141.28;100.00;51032.97;5105107;28;20457;-78
2022/11/30 08:41:10;;;;;;;8.33;4.57;;;;;;;-141.28;100.00;51064.38;5092605;28;20923;-75
2022/11/30 08:43:40;;;;;;;10.33;4.03;;;;;;;-141.28;100.00;51048.66;5096132;28;20903;-74
2022/11/30 08:46:10;;;;;;;4.87;2.33;;;;;;;-141.28;100.00;51099.72;5072870;28;20911;-74
2022/11/30 08:48:39;;;;;;;6.73;3.10;;;;;;;-141.28;100.00;51036.88;5081106;28;21067;-75
2022/11/30 08:51:09;;;;;;;5.47;3.00;;;;;;;-141.28;100.00;51009.41;5091832;28;20504;-77
2022/11/30 08:53:37;;;;;;;6.90;2.83;;;;;;;-141.28;100.00;50915.16;5092170;28;20655;-75
2022/11/30 08:56:07;;;;;;;3.77;2.80;;;;;;;-141.28;100.00;51021.19;5075957;28;21024;-75
2022/11/30 08:58:39;;;;;;;11.43;6.73;;;;;;;-141.28;100.00;50997.63;5083549;28;20444;-75
2022/11/30 09:01:08;;;;;;;6.47;3.40;;;;;;;-141.28;100.00;51019.22;5091539;28;20492;-75
2022/11/30 09:03:35;;;;;;;5.13;3.43;;;;;;;-141.28;100.00;51019.22;5092509;28;20438;-75
2022/11/30 09:06:07;;;;;;;5.07;3.00;;;;;;;-141.28;100.00;51017.25;5104731;28;20526;-76
2022/11/30 09:08:35;;;;;;;8.30;4.50;;;;;;;-141.28;100.00;51072.22;5092088;28;20507;-76
2022/11/30 09:11:09;;;;;;;9.20;4.00;;;;;;;-141.28;100.00;51054.56;5092059;28;20468;-76
2022/11/30 09:13:36;;;;;;;11.97;4.80;;;;;;;-141.28;100.00;51084.00;5091546;28;20453;-75
2022/11/30 09:16:06;;;;;;;5.10;3.17;;;;;;;-141.28;100.00;51070.25;5103099;28;20449;-75
2022/11/30 09:18:35;;;;;;;3.37;2.47;;;;;;;-141.28;100.00;51089.91;5104907;28;20531;-75
2022/11/30 09:21:03;;;;;;;6.37;3.13;;;;;;;-141.28;100.00;51042.78;5094278;28;20487;-76
2022/11/30 09:23:30;;;;;;;4.20;2.80;;;;;;;-141.28;100.00;50948.53;5076251;28;20443;-78
2022/11/30 09:25:58;;;;;;;3.60;2.30;;;;;;;-141.28;100.00;51060.44;5084165;28;20453;-78
2022/11/30 09:28:26;;;;;;;4.23;2.50;;;;;;;-141.28;100.00;51025.09;5091346;28;20978;-78
2022/11/30 09:30:54;;;;;;;3.60;2.57;;;;;;;-141.28;100.00;51109.53;5091649;28;20471;-75
2022/11/30 09:33:23;;;;;;;5.37;1.90;;;;;;;-141.28;100.00;51111.50;5091439;28;20437;-76
2022/11/30 09:35:57;;;;;;;4.83;2.37;;;;;;;-141.28;100.00;51148.78;5091816;28;20909;-78
2022/11/30 09:38:25;;;;;;;6.37;3.90;;;;;;;-141.28;100.00;51174.31;5086671;28;20445;-75
2022/11/30 09:40:56;;;;;;;19.30;9.83;;;;;;;-141.28;100.00;51170.38;5109606;28;20476;-77
2022/11/30 09:43:38;;;;;;;8.07;4.37;;;;;;;-141.28;100.00;51160.56;5072677;28;20896;-75
2022/11/30 09:46:08;;;;;;;8.20;2.53;;;;;;;-141.28;100.00;51123.28;5093969;28;20446;-74
2022/11/30 09:48:53;;;;;;;4.83;2.33;;;;;;;-141.28;100.00;51089.91;5107448;28;20448;-74
2022/11/30 09:51:25;;;;;;;3.30;1.97;;;;;;;-141.28;100.00;51072.22;5101297;28;20437;-75
2022/11/30 09:53:56;;;;;;;6.40;2.30;;;;;;;-141.28;100.00;51023.16;5099039;28;20445;-75
2022/11/30 09:56:29;;;;;;;4.17;2.13;;;;;;;-141.28;100.00;51099.72;5092569;28;20495;-74
2022/11/30 09:59:02;;;;;;;5.03;2.23;;;;;;;-141.28;100.00;51115.41;5080150;28;20512;-74
2022/11/30 10:01:29;;;;;;;5.17;2.20;;;;;;;-141.28;100.00;51105.59;5095281;28;20535;-74
2022/11/30 10:03:58;;;;;;;4.53;2.40;;;;;;;-141.28;100.00;51150.75;5095792;28;20507;-74
2022/11/30 10:06:34;;;;;;;6.30;4.20;;;;;;;-141.28;100.00;51164.50;5083916;28;20442;-76
2022/11/30 10:09:20;;;;;;;5.50;3.20;;;;;;;-141.28;100.00;51068.28;5097266;28;20869;-75
2022/11/30 10:12:00;;;;;;;4.03;2.73;;;;;;;-141.28;100.00;51005.47;5098719;28;20464;-75
2022/11/30 10:14:53;;;;;;;3.23;1.73;;;;;;;-141.28;100.00;51009.41;5104403;28;20956;-74
2022/11/30 10:17:34;;;;;;;3.90;1.87;;;;;;;-141.28;100.00;50974.06;5094698;28;20568;-76
2022/11/30 10:20:30;;;;;;;3.10;1.80;;;;;;;-141.28;100.00;50923.03;5110701;28;20469;-75
2022/11/30 10:23:09;;;;;;;2.53;1.73;;;;;;;-141.28;100.00;50875.91;5095718;28;20538;-76
2022/11/30 10:25:48;;;;;;;5.47;2.10;;;;;;;-141.28;100.00;50840.56;5082298;28;20518;-78
2022/11/30 10:28:18;;;;;;;12.40;3.97;;;;;;;-141.28;100.00;50844.50;5094434;28;20511;-78
2022/11/30 10:30:47;;;;;;;13.87;4.83;;;;;;;-141.28;100.00;50930.88;5094535;28;20903;-77
2022/11/30 10:33:18;;;;;;;16.73;8.60;;;;;;;-141.28;100.00;50987.81;5095091;28;20499;-78
2022/11/30 10:35:51;;;;;;;20.00;11.47;;;;;;;-141.28;100.00;51038.84;5096444;28;20445;-79
2022/11/30 10:38:24;;;;;;;11.27;6.17;;;;;;;-141.28;100.00;51025.09;5105545;28;20453;-76
2022/11/30 10:40:55;;;;;;;11.10;4.47;;;;;;;-141.28;100.00;51013.31;5094267;28;20453;-77
2022/11/30 10:43:31;;;;;;;6.47;2.60;;;;;;;-141.28;100.00;50844.50;5094931;28;20442;-75
2022/11/30 10:45:58;;;;;;;6.07;2.80;;;;;;;-141.28;100.00;50883.75;5093927;28;20461;-79
2022/11/30 10:48:35;;;;;;;9.67;3.33;;;;;;;-141.28;100.00;51029.03;5094805;28;20456;-75
2022/11/30 10:51:08;;;;;;;6.63;3.47;;;;;;;-141.28;100.00;51007.44;5087383;28;20449;-75
2022/11/30 10:53:36;;;;;;;6.03;2.90;;;;;;;-141.28;100.00;51040.81;5077263;28;20446;-76
2022/11/30 10:56:09;;;;;;;9.57;4.47;;;;;;;-141.28;100.00;51076.16;5112175;28;20514;-75
2022/11/30 10:58:40;;;;;;;7.53;5.13;;;;;;;-141.28;100.00;51040.81;5094138;28;20464;-75
2022/11/30 11:01:09;;;;;;;7.07;4.20;;;;;;;-141.28;100.00;51013.31;5095328;28;20937;-75
2022/11/30 11:03:38;;;;;;;8.27;4.17;;;;;;;-141.28;100.00;51087.94;5108051;28;20478;-77
2022/11/30 11:06:18;;;;;;;5.63;2.83;;;;;;;-141.28;100.00;51123.28;5116579;28;20444;-75
2022/11/30 11:08:46;;;;;;;5.93;2.47;;;;;;;-141.28;100.00;51080.06;5079838;28;20438;-76
2022/11/30 11:11:33;;;;;;;4.77;2.67;;;;;;;-141.28;100.00;51060.44;5093131;28;20461;-74
2022/11/30 11:14:16;;;;;;;2.87;2.20;;;;;;;-141.28;100.00;50703.16;5101525;28;20453;-75
2022/11/30 11:16:51;;;;;;;8.07;2.90;;;;;;;-141.28;100.00;50938.72;5101334;28;20473;-77
2022/11/30 11:19:24;;;;;;;5.33;3.20;;;;;;;-141.28;100.00;51131.13;5089006;28;20445;-75
2022/11/30 11:21:53;;;;;;;16.60;8.17;;;;;;;-141.28;100.00;51193.94;5097029;28;21068;-75